Time;durP1;ratioP1;P1;durP2;ratioP2;P2;SDS_P1;SDS_P2;PMS_P1;PMS_P2;Temp;Humidity;BMP_temperature;BMP_pressure;BME280_temperature;BME280_humidity;BME280_pressure;Samples;Min_cycle;Max_cycle;Signal;HPM_P1;HPM_P2
2022/01/08 00:02:09;;;;;;;11.70;3.47;;;1.00;99.90;;;;;;5050306;28;20470;-66
2022/01/08 00:04:34;;;;;;;10.30;2.67;;;1.00;99.90;;;;;;5048978;28;20415;-65
2022/01/08 00:07:00;;;;;;;6.35;2.85;;;1.00;99.90;;;;;;5049453;28;20479;-66
2022/01/08 00:09:26;;;;;;;8.18;2.42;;;1.00;99.90;;;;;;5049985;28;20043;-66
2022/01/08 00:11:51;;;;;;;13.00;2.83;;;1.00;99.90;;;;;;5049361;28;20542;-67
2022/01/08 00:14:20;;;;;;;7.70;2.45;;;1.00;99.90;;;;;;5049602;28;20045;-66
2022/01/08 00:16:46;;;;;;;9.40;3.10;;;1.00;99.90;;;;;;5044096;28;20558;-66
2022/01/08 00:19:12;;;;;;;7.03;2.63;;;1.00;99.90;;;;;;5049249;28;20187;-67
2022/01/08 00:21:37;;;;;;;5.55;2.17;;;1.00;99.90;;;;;;5049301;28;20033;-66
2022/01/08 00:24:03;;;;;;;12.40;2.58;;;1.00;99.90;;;;;;5045272;28;20049;-67
2022/01/08 00:26:29;;;;;;;12.73;3.97;;;1.00;99.90;;;;;;5052788;28;20052;-67
2022/01/08 00:28:54;;;;;;;6.20;2.35;;;1.10;99.90;;;;;;5050499;28;20045;-67
2022/01/08 00:31:20;;;;;;;7.75;2.53;;;1.10;99.90;;;;;;5047318;28;20522;-66
2022/01/08 00:33:47;;;;;;;7.43;2.85;;;1.10;99.90;;;;;;5047791;28;20668;-67
2022/01/08 00:36:13;;;;;;;7.47;2.75;;;1.20;99.90;;;;;;5050827;28;20090;-67
2022/01/08 00:38:39;;;;;;;12.52;2.53;;;1.20;99.90;;;;;;5048947;28;20053;-67
2022/01/08 00:41:04;;;;;;;7.10;2.80;;;1.20;99.90;;;;;;5049749;28;20036;-67
2022/01/08 00:43:30;;;;;;;12.40;2.65;;;1.10;99.90;;;;;;5049556;28;20044;-67
2022/01/08 00:45:55;;;;;;;10.77;2.78;;;1.10;99.90;;;;;;5050036;28;20037;-67
2022/01/08 00:48:21;;;;;;;8.13;2.42;;;1.10;99.90;;;;;;5050506;28;20037;-66
2022/01/08 00:50:47;;;;;;;11.90;2.70;;;1.10;99.90;;;;;;5045132;28;20039;-66
2022/01/08 00:53:12;;;;;;;9.98;2.33;;;1.20;99.90;;;;;;5050677;28;20048;-66
2022/01/08 00:55:38;;;;;;;10.93;3.10;;;1.10;99.90;;;;;;5050817;28;20038;-66
2022/01/08 00:58:03;;;;;;;9.43;2.70;;;1.10;99.90;;;;;;5047288;28;20452;-67
2022/01/08 01:00:29;;;;;;;7.40;2.50;;;1.10;99.90;;;;;;5047987;28;20140;-69
2022/01/08 01:02:55;;;;;;;8.05;2.90;;;1.10;99.90;;;;;;5048552;28;20056;-67
2022/01/08 01:05:21;;;;;;;10.45;2.75;;;1.00;99.90;;;;;;5032305;28;20099;-67
2022/01/08 01:07:47;;;;;;;9.73;3.15;;;1.00;99.90;;;;;;5049859;28;20041;-66
2022/01/08 01:10:13;;;;;;;11.25;3.10;;;1.00;99.90;;;;;;5049266;28;20090;-67
2022/01/08 01:12:39;;;;;;;10.48;3.25;;;1.00;99.90;;;;;;5044145;28;20033;-67
2022/01/08 01:15:06;;;;;;;10.55;3.15;;;1.00;99.90;;;;;;5040565;28;20038;-66
2022/01/08 01:17:32;;;;;;;7.28;3.40;;;1.10;99.90;;;;;;5050737;28;20445;-67
2022/01/08 01:19:57;;;;;;;7.07;3.20;;;1.10;99.90;;;;;;5047341;28;20135;-67
2022/01/08 01:22:28;;;;;;;10.43;3.58;;;1.10;99.90;;;;;;5050561;28;20045;-66
2022/01/08 01:25:01;;;;;;;12.25;3.72;;;1.10;99.90;;;;;;5049376;28;20080;-66
2022/01/08 01:30:13;;;;;;;12.82;4.00;;;1.20;99.90;;;;;;5048963;28;20090;-67
2022/01/08 01:49:07;;;;;;;10.77;3.78;;;1.20;99.90;;;;;;5052774;28;20048;-66
2022/01/08 01:51:33;;;;;;;12.65;4.35;;;1.20;99.90;;;;;;5053922;28;20052;-66
2022/01/08 01:53:59;;;;;;;13.98;4.18;;;1.30;99.90;;;;;;5052853;28;20471;-66
2022/01/08 01:56:25;;;;;;;9.65;3.95;;;1.20;99.90;;;;;;5056788;28;20045;-67
2022/01/08 01:58:51;;;;;;;14.35;3.97;;;1.20;99.90;;;;;;5048987;28;20104;-65
2022/01/08 02:01:17;;;;;;;8.00;3.53;;;1.20;99.90;;;;;;5052395;28;20567;-67
2022/01/08 02:03:43;;;;;;;7.82;4.15;;;1.20;99.90;;;;;;5038030;28;20069;-66
2022/01/08 02:06:09;;;;;;;8.40;3.55;;;1.30;99.90;;;;;;5052494;28;20372;-66
2022/01/08 02:08:37;;;;;;;12.60;3.88;;;1.20;99.90;;;;;;5034294;28;20056;-67
2022/01/08 02:11:03;;;;;;;10.25;3.47;;;1.20;99.90;;;;;;5051703;28;20045;-67
2022/01/08 02:13:29;;;;;;;9.45;4.03;;;1.20;99.90;;;;;;5053421;28;20456;-65
2022/01/08 02:15:56;;;;;;;9.05;3.80;;;1.20;99.90;;;;;;5052686;28;20120;-66
2022/01/08 02:18:25;;;;;;;9.13;4.25;;;1.20;99.90;;;;;;5052072;28;20159;-65
2022/01/08 02:20:52;;;;;;;10.40;3.60;;;1.20;99.90;;;;;;5052409;28;20120;-65
2022/01/08 02:23:18;;;;;;;9.73;3.85;;;1.20;99.90;;;;;;5050578;28;20045;-66
2022/01/08 02:25:44;;;;;;;11.90;3.90;;;1.20;99.90;;;;;;5051688;28;20103;-67
2022/01/08 02:28:10;;;;;;;12.82;4.43;;;1.20;99.90;;;;;;5052408;28;20419;-65
2022/01/08 02:30:35;;;;;;;11.95;4.43;;;1.10;99.90;;;;;;5052083;28;20053;-66
2022/01/08 02:33:01;;;;;;;11.85;4.90;;;1.10;99.90;;;;;;5050497;28;20518;-66
2022/01/08 02:35:27;;;;;;;8.45;4.43;;;1.10;99.90;;;;;;5049528;28;20056;-66
2022/01/08 02:37:53;;;;;;;10.32;4.28;;;1.10;99.90;;;;;;5051478;28;20052;-66
2022/01/08 02:40:20;;;;;;;6.43;3.40;;;1.00;99.90;;;;;;5051424;28;20466;-66
2022/01/08 02:43:03;;;;;;;11.25;3.30;;;1.00;99.90;;;;;;5048554;28;20688;-65
2022/01/08 02:45:30;;;;;;;9.40;2.90;;;1.00;99.90;;;;;;5049487;28;20045;-66
2022/01/08 02:47:57;;;;;;;11.45;3.40;;;1.00;99.90;;;;;;5048379;28;20110;-66
2022/01/08 02:50:24;;;;;;;11.57;3.78;;;1.00;99.90;;;;;;5049780;28;20512;-66
2022/01/08 02:52:51;;;;;;;7.05;3.03;;;1.00;99.90;;;;;;5049501;28;20041;-67
2022/01/08 02:55:19;;;;;;;11.95;2.97;;;1.10;99.90;;;;;;5051837;28;20037;-67
2022/01/08 02:57:45;;;;;;;;;;;1.20;99.90;;;;;;5052627;28;20521;-66
2022/01/08 03:00:13;;;;;;;8.25;2.70;;;1.20;99.90;;;;;;5050847;28;20015;-67
2022/01/08 03:02:43;;;;;;;8.23;2.97;;;1.20;99.90;;;;;;5049770;28;20044;-66
2022/01/08 03:05:13;;;;;;;5.70;2.38;;;1.10;99.90;;;;;;5050188;28;20071;-66
2022/01/08 03:07:41;;;;;;;10.40;2.50;;;1.10;99.90;;;;;;5050171;28;20049;-66
2022/01/08 03:10:13;;;;;;;15.18;3.03;;;1.10;99.90;;;;;;5050075;28;20043;-67
2022/01/08 03:12:41;;;;;;;5.18;2.30;;;1.00;99.90;;;;;;5050304;28;20376;-66
2022/01/08 03:15:18;;;;;;;;;;;1.00;99.90;;;;;;5051409;28;20037;-66
2022/01/08 03:17:44;;;;;;;7.72;2.30;;;0.90;99.90;;;;;;5043679;28;20424;-68
2022/01/08 03:20:13;;;;;;;9.35;2.67;;;0.90;99.90;;;;;;5051365;28;20037;-68
2022/01/08 03:22:41;;;;;;;11.25;2.80;;;0.90;99.90;;;;;;5049966;28;20051;-68
2022/01/08 03:25:08;;;;;;;5.38;2.50;;;0.90;99.90;;;;;;5048623;28;20113;-67
2022/01/08 03:27:34;;;;;;;7.57;2.60;;;0.90;99.90;;;;;;5050178;28;20049;-66
2022/01/08 03:30:00;;;;;;;12.27;2.80;;;0.80;99.90;;;;;;5049243;28;20036;-66
2022/01/08 03:32:26;;;;;;;7.75;2.40;;;0.80;99.90;;;;;;5047018;28;20051;-66
2022/01/08 03:34:53;;;;;;;8.98;2.60;;;0.80;99.90;;;;;;5051432;28;20041;-66
2022/01/08 03:37:18;;;;;;;11.82;3.17;;;0.80;99.90;;;;;;5050662;28;20049;-67
2022/01/08 03:39:44;;;;;;;10.38;2.67;;;0.80;99.90;;;;;;5050089;28;20419;-67
2022/01/08 03:42:10;;;;;;;7.10;2.30;;;0.70;99.90;;;;;;5050710;28;20049;-66
2022/01/08 03:44:37;;;;;;;14.18;2.85;;;0.70;99.90;;;;;;5051528;28;20059;-66
2022/01/08 03:47:41;;;;;;;7.05;2.22;;;0.70;99.90;;;;;;5051586;28;20110;-66
2022/01/08 03:50:06;;;;;;;6.10;2.42;;;0.60;99.90;;;;;;5050589;28;20503;-66
2022/01/08 03:52:32;;;;;;;14.68;2.75;;;0.60;99.90;;;;;;5050794;28;20075;-66
2022/01/08 03:54:58;;;;;;;9.07;2.30;;;0.60;99.90;;;;;;5066200;28;20116;-66
2022/01/08 03:57:24;;;;;;;7.97;2.33;;;0.60;99.90;;;;;;5049847;28;20124;-66
2022/01/08 03:59:49;;;;;;;8.02;2.50;;;0.60;99.90;;;;;;5050224;28;20036;-66
2022/01/08 04:02:15;;;;;;;9.60;3.58;;;0.50;99.90;;;;;;5050869;28;20044;-66
2022/01/08 04:04:41;;;;;;;5.30;2.10;;;0.50;99.90;;;;;;5066166;28;20463;-66
2022/01/08 04:07:07;;;;;;;5.65;2.03;;;0.60;99.90;;;;;;5049805;28;20079;-66
2022/01/08 04:09:32;;;;;;;9.48;2.10;;;0.60;99.90;;;;;;5046135;28;20048;-66
2022/01/08 04:11:59;;;;;;;6.28;2.42;;;0.60;99.90;;;;;;5050450;28;20072;-67
2022/01/08 04:14:31;;;;;;;8.70;2.00;;;0.60;99.90;;;;;;5049979;28;20503;-66
2022/01/08 04:16:57;;;;;;;12.80;2.30;;;0.60;99.90;;;;;;5049707;28;20095;-66
2022/01/08 04:19:22;;;;;;;6.57;2.20;;;0.60;99.90;;;;;;5050618;28;20121;-66
2022/01/08 04:22:07;;;;;;;5.40;2.10;;;0.60;99.90;;;;;;5050154;28;20087;-66
2022/01/08 04:24:32;;;;;;;10.50;2.67;;;0.60;99.90;;;;;;5050059;28;20052;-66
2022/01/08 04:26:58;;;;;;;6.28;2.28;;;0.60;99.90;;;;;;5050560;28;20041;-66
2022/01/08 04:29:24;;;;;;;8.38;2.60;;;0.60;99.90;;;;;;5048472;28;20432;-66
2022/01/08 04:31:49;;;;;;;10.13;2.13;;;0.60;99.90;;;;;;5050767;28;20120;-66
2022/01/08 04:34:15;;;;;;;6.07;2.10;;;0.70;99.90;;;;;;5049317;28;20318;-66
2022/01/08 04:36:42;;;;;;;13.55;2.67;;;0.70;99.90;;;;;;5051083;28;20037;-66
2022/01/08 04:39:07;;;;;;;7.88;2.10;;;0.80;99.90;;;;;;5048362;28;20280;-67
2022/01/08 04:41:33;;;;;;;9.57;2.47;;;0.80;99.90;;;;;;5050154;28;20033;-67
2022/01/08 04:43:59;;;;;;;9.80;2.67;;;0.90;99.90;;;;;;5049655;28;20140;-67
2022/01/08 04:46:24;;;;;;;9.57;2.40;;;0.90;99.90;;;;;;5065593;28;20049;-66
2022/01/08 04:48:50;;;;;;;7.07;2.58;;;1.00;99.90;;;;;;5050403;28;20037;-67
2022/01/08 04:51:16;;;;;;;5.78;2.47;;;1.00;99.90;;;;;;5049785;28;20475;-66
2022/01/08 04:53:41;;;;;;;6.85;2.40;;;1.10;99.90;;;;;;5048965;28;20060;-67
2022/01/08 04:56:07;;;;;;;13.07;3.03;;;1.10;99.90;;;;;;5047848;28;20044;-67
2022/01/08 04:58:33;;;;;;;6.10;2.47;;;1.20;99.90;;;;;;5048172;28;20033;-66
2022/01/08 05:00:58;;;;;;;11.15;2.45;;;1.20;99.90;;;;;;5047821;28;20165;-66
2022/01/08 05:03:24;;;;;;;8.10;2.40;;;1.20;99.90;;;;;;5050300;28;20501;-66
2022/01/08 05:05:50;;;;;;;10.57;3.03;;;1.20;99.90;;;;;;5050111;28;20505;-66
2022/01/08 05:08:15;;;;;;;12.13;2.60;;;1.20;99.90;;;;;;5046526;28;20063;-66
2022/01/08 05:10:41;;;;;;;15.13;2.88;;;1.20;99.90;;;;;;5051109;28;20112;-66
2022/01/08 05:13:07;;;;;;;9.63;2.60;;;1.20;99.90;;;;;;5053855;28;20041;-66
2022/01/08 05:15:33;;;;;;;11.55;3.08;;;1.20;99.90;;;;;;5051498;28;20068;-65
2022/01/08 05:17:58;;;;;;;7.82;2.67;;;1.20;99.90;;;;;;5047055;28;20037;-67
2022/01/08 05:20:29;;;;;;;9.05;2.70;;;1.20;99.90;;;;;;5051043;28;20041;-67
2022/01/08 05:23:00;;;;;;;16.15;2.97;;;1.20;99.90;;;;;;5063967;28;20479;-67
2022/01/08 05:25:27;;;;;;;8.93;2.42;;;1.20;99.90;;;;;;5053578;28;20079;-67
2022/01/08 05:27:53;;;;;;;7.97;2.50;;;1.20;99.90;;;;;;5050977;28;20084;-67
2022/01/08 05:30:21;;;;;;;5.68;2.08;;;1.20;99.90;;;;;;5052158;28;20048;-66
2022/01/08 05:32:47;;;;;;;8.50;3.10;;;1.10;99.90;;;;;;5019944;28;20115;-66
2022/01/08 05:35:13;;;;;;;15.02;3.72;;;1.10;99.90;;;;;;5051611;28;20053;-66
2022/01/08 05:37:39;;;;;;;14.30;2.40;;;1.10;99.90;;;;;;5053130;28;20052;-66
2022/01/08 05:40:05;;;;;;;9.15;2.78;;;1.10;99.90;;;;;;5035115;28;20041;-66
2022/01/08 05:42:31;;;;;;;8.88;2.08;;;1.10;99.90;;;;;;5052556;28;20124;-67
2022/01/08 05:44:57;;;;;;;6.20;2.50;;;1.10;99.90;;;;;;5052740;28;20132;-66
2022/01/08 05:47:23;;;;;;;9.73;3.40;;;1.00;99.90;;;;;;5053013;28;20143;-66
2022/01/08 05:49:49;;;;;;;14.18;2.60;;;1.00;99.90;;;;;;5051975;28;20080;-66
2022/01/08 05:52:15;;;;;;;10.85;2.72;;;1.00;99.90;;;;;;5053170;28;20088;-67
2022/01/08 05:54:42;;;;;;;11.10;2.53;;;1.00;99.90;;;;;;5050823;28;20068;-66
2022/01/08 05:57:08;;;;;;;9.27;2.45;;;1.00;99.90;;;;;;5053029;28;20103;-66
2022/01/08 05:59:33;;;;;;;10.60;2.80;;;1.00;99.90;;;;;;5051642;28;20266;-66
2022/01/08 06:01:59;;;;;;;10.15;2.88;;;1.00;99.90;;;;;;5049312;28;20044;-66
2022/01/08 06:04:25;;;;;;;10.70;2.33;;;1.00;99.90;;;;;;5052344;28;20059;-66
2022/01/08 06:06:50;;;;;;;7.38;2.08;;;1.00;99.90;;;;;;5052745;28;20052;-66
2022/01/08 06:09:16;;;;;;;5.80;2.25;;;1.00;99.90;;;;;;5052723;28;20099;-66
2022/01/08 06:11:42;;;;;;;9.38;3.38;;;1.00;99.90;;;;;;5052642;28;20495;-67
2022/01/08 06:14:08;;;;;;;9.63;2.35;;;0.90;99.90;;;;;;5032368;28;20063;-66
2022/01/08 06:16:35;;;;;;;10.98;2.40;;;0.90;99.90;;;;;;5052660;28;20041;-66
2022/01/08 06:19:12;;;;;;;9.82;2.72;;;0.90;99.90;;;;;;5052637;28;20037;-66
2022/01/08 06:21:38;;;;;;;5.95;2.60;;;0.90;99.90;;;;;;5051464;28;20049;-67
2022/01/08 06:24:05;;;;;;;10.57;2.80;;;0.80;99.90;;;;;;5067722;28;20467;-66
2022/01/08 06:26:31;;;;;;;22.95;3.60;;;0.80;99.90;;;;;;5035025;28;20045;-66
2022/01/08 06:28:57;;;;;;;11.52;3.20;;;0.70;99.90;;;;;;5052505;28;20040;-66
2022/01/08 06:31:24;;;;;;;15.52;4.15;;;0.80;99.90;;;;;;5051890;28;20400;-67
2022/01/08 06:33:50;;;;;;;13.15;3.58;;;0.70;99.90;;;;;;5052401;28;20045;-67
2022/01/08 06:36:18;;;;;;;10.88;4.25;;;0.80;99.90;;;;;;5045591;28;20120;-66
2022/01/08 06:38:47;;;;;;;13.32;4.07;;;0.70;99.90;;;;;;5047244;28;20045;-67
2022/01/08 06:41:13;;;;;;;15.40;4.30;;;0.70;99.90;;;;;;5052388;28;20033;-66
2022/01/08 06:43:39;;;;;;;14.65;4.40;;;0.70;99.90;;;;;;5052277;28;20041;-68
2022/01/08 06:46:04;;;;;;;16.38;5.00;;;0.70;99.90;;;;;;5052322;28;20041;-66
2022/01/08 06:48:30;;;;;;;11.90;4.75;;;0.70;99.90;;;;;;5050025;28;20040;-66
2022/01/08 06:50:56;;;;;;;12.32;4.90;;;0.70;99.90;;;;;;5064968;28;20034;-66
2022/01/08 06:53:21;;;;;;;15.68;5.30;;;0.70;99.90;;;;;;5052330;28;20052;-66
2022/01/08 06:55:47;;;;;;;16.05;6.07;;;0.60;99.90;;;;;;5050424;28;20183;-67
2022/01/08 06:58:12;;;;;;;20.17;5.95;;;0.60;99.90;;;;;;5051116;28;20482;-66
2022/01/08 07:00:38;;;;;;;14.32;6.07;;;0.50;99.90;;;;;;5052296;28;20029;-67
2022/01/08 07:03:09;;;;;;;19.55;5.80;;;0.50;99.90;;;;;;5050749;28;20048;-67
2022/01/08 07:05:35;;;;;;;19.25;6.25;;;0.50;99.90;;;;;;5047349;28;20499;-67
2022/01/08 07:08:01;;;;;;;18.00;6.78;;;0.50;99.90;;;;;;5050841;28;20505;-66
2022/01/08 07:10:27;;;;;;;14.68;6.30;;;0.50;99.90;;;;;;5052193;28;20045;-66
2022/01/08 07:12:52;;;;;;;16.67;6.18;;;0.50;99.90;;;;;;5051338;28;20033;-67
2022/01/08 07:15:18;;;;;;;11.65;5.55;;;0.40;99.90;;;;;;5049343;28;20120;-66
2022/01/08 07:17:43;;;;;;;17.17;6.18;;;0.40;99.90;;;;;;5049781;28;20045;-66
2022/01/08 07:20:09;;;;;;;15.88;6.82;;;0.40;99.90;;;;;;5045087;28;20036;-66
2022/01/08 07:22:35;;;;;;;24.67;7.55;;;0.40;99.90;;;;;;5048935;28;20044;-66
2022/01/08 07:25:03;;;;;;;12.90;6.13;;;0.40;99.90;;;;;;5048297;28;20125;-65
2022/01/08 07:27:32;;;;;;;21.10;6.47;;;0.40;99.90;;;;;;5052085;28;20057;-66
2022/01/08 07:29:58;;;;;;;17.27;7.00;;;0.50;99.90;;;;;;5051224;28;20037;-67
2022/01/08 07:32:23;;;;;;;16.70;7.13;;;0.50;99.90;;;;;;5050946;28;20056;-66
2022/01/08 07:34:49;;;;;;;24.52;7.55;;;0.50;99.90;;;;;;5047154;28;20048;-66
2022/01/08 07:37:15;;;;;;;24.00;8.02;;;0.40;99.90;;;;;;5049006;28;20052;-66
2022/01/08 07:39:40;;;;;;;19.98;8.23;;;0.50;99.90;;;;;;5051231;28;20060;-66
2022/01/08 07:42:06;;;;;;;16.45;6.65;;;0.50;99.90;;;;;;5049560;28;20052;-66
2022/01/08 07:44:31;;;;;;;18.17;6.18;;;0.50;99.90;;;;;;5048387;28;20388;-67
2022/01/08 07:46:58;;;;;;;18.85;6.97;;;0.50;99.90;;;;;;5049286;28;20285;-67
2022/01/08 07:49:24;;;;;;;18.48;6.60;;;0.50;99.90;;;;;;5050499;28;20049;-66
2022/01/08 07:51:49;;;;;;;15.70;6.85;;;0.50;99.90;;;;;;5048483;28;20055;-66
2022/01/08 07:54:15;;;;;;;20.15;6.85;;;0.50;99.90;;;;;;5048610;28;20044;-67
2022/01/08 07:56:41;;;;;;;23.52;6.75;;;0.50;99.90;;;;;;5050857;28;20448;-66
2022/01/08 07:59:06;;;;;;;13.95;6.25;;;0.50;99.90;;;;;;5050479;28;20047;-66
2022/01/08 08:01:32;;;;;;;14.02;6.32;;;0.50;99.90;;;;;;5044807;28;20416;-66
2022/01/08 08:03:57;;;;;;;24.20;6.63;;;0.50;99.90;;;;;;5045733;28;20037;-66
2022/01/08 08:06:23;;;;;;;14.35;5.82;;;0.50;99.90;;;;;;5047742;28;20044;-66
2022/01/08 08:08:49;;;;;;;15.93;6.18;;;0.60;99.90;;;;;;5065051;28;20079;-66
2022/01/08 08:11:14;;;;;;;16.48;6.00;;;0.60;99.90;;;;;;5050665;28;20056;-66
2022/01/08 08:13:40;;;;;;;21.17;6.43;;;0.60;99.90;;;;;;5049670;28;20083;-66
2022/01/08 08:16:07;;;;;;;30.27;6.15;;;0.60;99.90;;;;;;5050013;28;20145;-66
2022/01/08 08:18:33;;;;;;;19.88;5.85;;;0.60;99.90;;;;;;5047588;28;20041;-66
2022/01/08 08:20:58;;;;;;;20.27;5.88;;;0.60;99.90;;;;;;5050283;28;20045;-66
2022/01/08 08:23:24;;;;;;;17.60;5.90;;;0.70;99.90;;;;;;5041991;28;20391;-67
2022/01/08 08:25:50;;;;;;;15.93;5.75;;;0.70;99.90;;;;;;5048814;28;20033;-66
2022/01/08 08:28:16;;;;;;;15.82;5.57;;;0.70;99.90;;;;;;5047813;28;20442;-66
2022/01/08 08:30:41;;;;;;;24.60;7.00;;;0.80;99.90;;;;;;5050175;28;20056;-67
2022/01/08 08:33:07;;;;;;;15.40;5.43;;;0.90;99.90;;;;;;5049085;28;20040;-67
2022/01/08 08:35:33;;;;;;;16.95;5.90;;;0.90;99.90;;;;;;5048624;28;20041;-66
2022/01/08 08:38:00;;;;;;;15.38;5.20;;;1.00;99.90;;;;;;5045994;28;20075;-66
2022/01/08 08:40:25;;;;;;;14.55;5.05;;;1.10;99.90;;;;;;5064816;28;20056;-67
2022/01/08 08:42:51;;;;;;;21.15;6.65;;;1.20;99.90;;;;;;5064272;28;20057;-66
2022/01/08 08:45:17;;;;;;;15.27;4.75;;;1.40;99.90;;;;;;5051707;28;20495;-66
2022/01/08 08:47:43;;;;;;;14.35;5.10;;;1.40;99.90;;;;;;5053392;28;20502;-66
2022/01/08 08:50:12;;;;;;;12.43;4.35;;;1.50;99.90;;;;;;5050075;28;20040;-67
2022/01/08 08:52:38;;;;;;;12.80;5.05;;;1.60;99.90;;;;;;5054957;28;20127;-66
2022/01/08 08:55:05;;;;;;;15.85;4.97;;;1.60;99.90;;;;;;5053819;28;20052;-66
2022/01/08 08:57:30;;;;;;;20.17;6.10;;;1.60;99.90;;;;;;5054956;28;20102;-67
2022/01/08 08:59:56;;;;;;;15.45;5.05;;;1.60;99.90;;;;;;5053225;28;20033;-66
2022/01/08 09:02:22;;;;;;;10.43;5.05;;;1.70;99.90;;;;;;5052880;28;20049;-66
2022/01/08 09:04:51;;;;;;;11.40;4.63;;;1.70;99.90;;;;;;5053973;28;20041;-66
2022/01/08 09:07:17;;;;;;;10.05;4.90;;;1.80;99.90;;;;;;5066929;28;20049;-67
2022/01/08 09:09:44;;;;;;;12.00;5.20;;;1.80;99.90;;;;;;5052566;28;20044;-67
2022/01/08 09:12:14;;;;;;;15.35;5.53;;;1.80;99.90;;;;;;5053042;28;20427;-66
2022/01/08 09:14:41;;;;;;;10.02;4.40;;;1.80;99.90;;;;;;5051001;28;20055;-66
2022/01/08 09:17:07;;;;;;;18.35;5.45;;;1.90;99.90;;;;;;5052385;28;20044;-66
2022/01/08 09:19:36;;;;;;;18.40;5.18;;;2.00;99.90;;;;;;5050575;28;20465;-66
2022/01/08 09:22:04;;;;;;;12.68;5.47;;;2.10;99.90;;;;;;5046666;28;20431;-66
2022/01/08 09:24:30;;;;;;;18.45;5.32;;;2.10;99.90;;;;;;5045670;28;20041;-67
2022/01/08 09:26:56;;;;;;;18.13;5.07;;;2.30;99.90;;;;;;5048925;28;20048;-66
2022/01/08 09:29:22;;;;;;;8.80;4.80;;;2.50;99.90;;;;;;5051872;28;20040;-66
2022/01/08 09:31:47;;;;;;;12.65;4.82;;;2.70;99.90;;;;;;5051544;28;20478;-65
2022/01/08 09:34:13;;;;;;;10.23;4.35;;;2.90;99.90;;;;;;5051730;28;20814;-65
2022/01/08 09:36:39;;;;;;;15.23;4.60;;;3.10;99.90;;;;;;5052479;28;20033;-65
2022/01/08 09:39:07;;;;;;;11.75;4.45;;;3.10;99.90;;;;;;5051749;28;20373;-66
2022/01/08 09:41:33;;;;;;;11.30;3.92;;;3.20;99.90;;;;;;5052924;28;20578;-64
2022/01/08 09:43:59;;;;;;;17.33;4.05;;;3.10;99.90;;;;;;5053944;28;20127;-66
2022/01/08 09:46:24;;;;;;;9.45;3.90;;;3.10;99.90;;;;;;5050322;28;20040;-65
2022/01/08 09:48:50;;;;;;;17.50;3.45;;;3.00;99.90;;;;;;5051310;28;20082;-66
2022/01/08 09:51:17;;;;;;;15.27;4.25;;;2.90;99.90;;;;;;5050515;28;20138;-66
2022/01/08 09:53:46;;;;;;;10.85;3.67;;;2.90;99.90;;;;;;5051977;28;20083;-66
2022/01/08 09:56:12;;;;;;;12.60;3.58;;;2.90;99.90;;;;;;5065731;28;20037;-65
2022/01/08 09:58:37;;;;;;;15.32;4.07;;;3.00;99.90;;;;;;5067292;28;20053;-65
2022/01/08 10:01:22;;;;;;;14.05;3.92;;;3.20;99.90;;;;;;5052363;28;20381;-65
2022/01/08 10:03:47;;;;;;;13.40;3.78;;;3.40;99.90;;;;;;5048860;28;20044;-65
2022/01/08 10:06:24;;;;;;;16.75;4.32;;;3.80;99.90;;;;;;5052635;28;20501;-65
2022/01/08 10:08:50;;;;;;;12.95;3.40;;;4.00;99.90;;;;;;5051975;28;20044;-66
2022/01/08 10:11:16;;;;;;;15.25;3.35;;;4.10;99.90;;;;;;5050996;28;20067;-66
2022/01/08 10:13:43;;;;;;;16.27;3.38;;;4.20;99.90;;;;;;5051662;28;20037;-67
2022/01/08 10:18:58;;;;;;;13.75;3.90;;;4.00;99.90;;;;;;5052690;28;20051;-65
2022/01/08 10:21:26;;;;;;;8.95;3.47;;;3.90;99.90;;;;;;5052072;28;20076;-66
2022/01/08 10:23:57;;;;;;;10.80;3.55;;;3.80;99.90;;;;;;5052159;28;20091;-67
2022/01/08 10:26:31;;;;;;;9.73;3.17;;;3.70;99.90;;;;;;5050149;28;20502;-65
2022/01/08 10:28:59;;;;;;;10.98;3.33;;;3.60;99.90;;;;;;5044468;28;20398;-66
2022/01/08 10:31:26;;;;;;;;;;;3.60;99.90;;;;;;5052985;28;20044;-66
2022/01/08 10:34:01;;;;;;;15.98;4.05;;;3.50;99.90;;;;;;5052223;28;19927;-66
2022/01/08 10:36:31;;;;;;;9.68;3.83;;;3.50;99.90;;;;;;5051191;28;20076;-66
2022/01/08 10:38:59;;;;;;;13.77;3.95;;;3.50;99.90;;;;;;5052051;28;20140;-66
2022/01/08 10:41:28;;;;;;;11.02;3.85;;;3.50;99.90;;;;;;5050591;28;20047;-65
2022/01/08 10:44:15;;;;;;;8.50;3.65;;;3.40;99.90;;;;;;5049430;28;20493;-65
2022/01/08 10:46:54;;;;;;;11.98;3.55;;;3.40;99.90;;;;;;5049565;28;20399;-65
2022/01/08 10:49:33;;;;;;;16.83;4.43;;;3.40;99.90;;;;;;5051568;28;20045;-65
2022/01/08 10:52:01;;;;;;;13.35;3.60;;;3.40;99.90;;;;;;5046917;28;20056;-65
2022/01/08 10:54:31;;;;;;;13.70;3.95;;;3.30;99.90;;;;;;5046162;28;20098;-65
2022/01/08 10:57:02;;;;;;;17.45;4.85;;;3.30;99.90;;;;;;5049867;28;20395;-65
2022/01/08 10:59:29;;;;;;;12.30;4.38;;;3.30;99.90;;;;;;5052319;28;20048;-65
2022/01/08 11:02:07;;;;;;;10.80;4.45;;;3.30;99.90;;;;;;5051998;28;20403;-65
2022/01/08 11:04:52;;;;;;;16.58;4.65;;;3.30;99.90;;;;;;5051242;28;20041;-65
2022/01/08 11:07:26;;;;;;;16.77;5.07;;;3.20;99.90;;;;;;5056008;28;20436;-65
2022/01/08 11:09:54;;;;;;;14.65;5.00;;;3.20;99.90;;;;;;5048586;28;20115;-64
2022/01/08 11:12:29;;;;;;;10.13;5.10;;;3.20;99.90;;;;;;5046130;28;20052;-64
2022/01/08 11:15:22;;;;;;;12.38;5.72;;;3.20;99.90;;;;;;5048126;28;20041;-64
2022/01/08 11:17:48;;;;;;;12.60;4.65;;;3.20;99.90;;;;;;5043211;28;20052;-65
2022/01/08 11:20:14;;;;;;;17.80;5.97;;;3.20;99.90;;;;;;5043239;28;20049;-65
2022/01/08 11:22:42;;;;;;;19.05;5.60;;;3.20;99.90;;;;;;5048902;28;20413;-65
2022/01/08 11:25:17;;;;;;;19.13;6.45;;;3.30;99.90;;;;;;5042811;28;20049;-65
2022/01/08 11:28:03;;;;;;;19.25;5.88;;;3.30;99.90;;;;;;5049925;28;20399;-66
2022/01/08 11:30:31;;;;;;;14.57;6.07;;;3.30;99.90;;;;;;5050645;28;20555;-67
2022/01/08 11:33:03;;;;;;;19.38;6.00;;;3.30;99.90;;;;;;5046155;28;20360;-66
2022/01/08 11:35:31;;;;;;;11.27;5.00;;;3.40;99.90;;;;;;5050874;28;20041;-65
2022/01/08 11:37:57;;;;;;;16.85;5.50;;;3.40;99.90;;;;;;5050985;28;20044;-65
2022/01/08 11:40:25;;;;;;;12.95;6.15;;;3.50;99.90;;;;;;5050803;28;20095;-66
2022/01/08 11:42:51;;;;;;;;;;;3.50;99.90;;;;;;5052460;28;20351;-66
2022/01/08 11:45:24;;;;;;;13.60;5.35;;;3.50;99.90;;;;;;5050624;28;20371;-66
2022/01/08 11:47:53;;;;;;;16.70;6.00;;;3.50;99.90;;;;;;5050139;28;20037;-66
2022/01/08 11:50:21;;;;;;;16.98;5.97;;;3.50;99.90;;;;;;5051018;28;20094;-64
2022/01/08 11:53:07;;;;;;;;;;;3.60;99.90;;;;;;5051453;28;20512;-65
2022/01/08 11:55:36;;;;;;;10.18;5.78;;;3.60;99.90;;;;;;5045108;28;19932;-64
2022/01/08 11:58:17;;;;;;;15.20;5.78;;;3.60;99.90;;;;;;5049076;28;20483;-65
2022/01/08 12:00:54;;;;;;;15.50;6.18;;;3.70;99.90;;;;;;5049429;28;20037;-65
2022/01/08 12:03:25;;;;;;;15.70;6.28;;;3.70;99.90;;;;;;5050777;28;20091;-65
2022/01/08 12:05:51;;;;;;;13.48;5.90;;;3.70;99.90;;;;;;5050838;28;20048;-65
2022/01/08 12:08:17;;;;;;;23.85;6.75;;;3.70;99.90;;;;;;5049590;28;20070;-65
2022/01/08 12:11:01;;;;;;;17.48;6.22;;;3.80;99.90;;;;;;5051194;28;20442;-65
2022/01/08 12:13:44;;;;;;;14.00;5.93;;;3.80;99.90;;;;;;5048862;28;20091;-66
2022/01/08 12:16:39;;;;;;;23.30;6.60;;;3.80;99.90;;;;;;5047827;28;20041;-64
2022/01/08 12:19:07;;;;;;;11.95;6.70;;;3.80;99.90;;;;;;5047325;28;20045;-65
2022/01/08 12:21:38;;;;;;;12.73;6.00;;;3.80;99.90;;;;;;5048827;28;20071;-65
2022/01/08 12:24:28;;;;;;;10.88;6.20;;;3.80;99.90;;;;;;5050442;28;20056;-64
2022/01/08 12:26:58;;;;;;;19.67;7.90;;;3.80;99.90;;;;;;5048300;28;20491;-65
2022/01/08 12:29:35;;;;;;;17.88;8.02;;;3.70;99.90;;;;;;5049914;28;20436;-65
2022/01/08 12:32:44;;;;;;;13.18;7.18;;;3.70;99.90;;;;;;5046433;28;20045;-65
2022/01/08 12:35:20;;;;;;;22.67;7.70;;;3.80;99.90;;;;;;5041012;28;20053;-65
2022/01/08 12:37:57;;;;;;;23.63;8.43;;;3.80;99.90;;;;;;5048524;28;20514;-66
2022/01/08 12:40:34;;;;;;;19.63;7.53;;;3.80;99.90;;;;;;5041613;28;20057;-66
2022/01/08 12:43:15;;;;;;;15.85;7.95;;;3.80;99.90;;;;;;5047166;28;20411;-65
2022/01/08 12:45:42;;;;;;;16.58;8.18;;;3.80;99.90;;;;;;5043628;28;20037;-64
2022/01/08 12:48:09;;;;;;;20.90;8.77;;;3.80;99.90;;;;;;5049866;28;20075;-65
2022/01/08 12:50:42;;;;;;;16.88;8.55;;;3.80;99.90;;;;;;5044929;28;20041;-64
2022/01/08 12:53:09;;;;;;;17.15;8.93;;;3.80;99.90;;;;;;5050436;28;20098;-64
2022/01/08 12:55:39;;;;;;;19.90;8.98;;;3.80;99.90;;;;;;5050853;28;20514;-64
2022/01/08 12:58:19;;;;;;;17.85;9.70;;;3.80;99.90;;;;;;5048994;28;20040;-64
2022/01/08 13:00:53;;;;;;;19.98;9.45;;;3.80;99.90;;;;;;5045564;28;20210;-64
2022/01/08 13:03:24;;;;;;;15.38;9.52;;;3.80;99.90;;;;;;5049403;28;20667;-64
2022/01/08 13:05:50;;;;;;;18.60;10.32;;;3.80;99.90;;;;;;5041364;28;20572;-65
2022/01/08 13:08:28;;;;;;;19.17;10.82;;;3.80;99.90;;;;;;5047426;28;20551;-66
2022/01/08 13:10:57;;;;;;;21.83;10.98;;;3.80;99.90;;;;;;5048099;28;20045;-65
2022/01/08 13:13:41;;;;;;;19.33;10.38;;;3.80;99.90;;;;;;5050706;28;20040;-66
2022/01/08 13:16:18;;;;;;;20.63;11.07;;;3.80;99.90;;;;;;5046894;28;20048;-65
2022/01/08 13:18:59;;;;;;;17.67;11.00;;;3.80;99.90;;;;;;5046320;28;20041;-64